PWSweather.com
Personal Weather Stations
Station Observations
IONTARIO88
Lincoln, ON L0R

Lincoln, ON L0R

Lat: 43.1763563, Lon: -79.4719525

Elevation: 297

Station Type: Davis Vantage Pro 2 Plus

http://www.beamsvillewx.ca

High Low Average
Temperature 74.5°F23.6°C 51.6°F10.9°C 65.4°F18.6°C
Dew Point 68.1°F20.1°C 40.2°F4.6°C 56.9°F13.8°C
Winds 9.0 mph 14.5 kmh 3.0 mph 4.8 kmh 6.0 mph WSW9.7 kmh WSW
Wind Gusts 22.0 mph35.4 kmh 8.0 mph12.9 kmh 14.0 mph22.5 kmh
Humidity 92% 63% 74%
Pressure 29.76 in1007.8 mb 29.56 in1001.0 mb -
Precipitation 0.03 in0.8 mm - -
Hour Temp Dew Point Humidity Winds Wind Gusts Pressure Precip Precip Rate Daily Precip Total
12:00 AM 74.7°F23.7°C 66.2°F19.0°C 75% 3.0 mph S4.8 kmh S 9.0 mph14.5 kmh 29.63 in1003.4 mb 0.00 in0.0 mm 0.00 in0.0 mm 0.00 in0.0 mm
12:15 AM 74.8°F23.8°C 66.4°F19.1°C 75% 5.0 mph S8.0 kmh S 15.0 mph24.1 kmh 29.63 in1003.4 mb 0.00 in0.0 mm 0.00 in0.0 mm 0.00 in0.0 mm
12:30 AM 74.7°F23.7°C 66.6°F19.2°C 76% 3.0 mph S4.8 kmh S 9.0 mph14.5 kmh 29.62 in1003.0 mb 0.00 in0.0 mm 0.00 in0.0 mm 0.00 in0.0 mm
12:45 AM 74.7°F23.7°C 66.6°F19.2°C 76% 3.0 mph S4.8 kmh S 15.0 mph24.1 kmh 29.62 in1003.0 mb 0.00 in0.0 mm 0.00 in0.0 mm 0.00 in0.0 mm
01:00 AM 74.5°F23.6°C 66.8°F19.3°C 77% 3.0 mph S4.8 kmh S 10.0 mph16.1 kmh 29.61 in1002.7 mb 0.00 in0.0 mm 0.00 in0.0 mm 0.00 in0.0 mm
01:15 AM 74.5°F23.6°C 66.8°F19.3°C 77% 4.0 mph S6.4 kmh S 16.0 mph25.7 kmh 29.61 in1002.7 mb 0.00 in0.0 mm 0.00 in0.0 mm 0.00 in0.0 mm
01:30 AM 74.5°F23.6°C 67.2°F19.6°C 78% 5.0 mph SSW8.0 kmh SSW 12.0 mph19.3 kmh 29.61 in1002.7 mb 0.00 in0.0 mm 0.00 in0.0 mm 0.00 in0.0 mm
01:45 AM 74.5°F23.6°C 67.2°F19.6°C 78% 4.0 mph S6.4 kmh S 14.0 mph22.5 kmh 29.61 in1002.7 mb 0.00 in0.0 mm 0.00 in0.0 mm 0.00 in0.0 mm
02:00 AM 74.5°F23.6°C 67.2°F19.6°C 78% 6.0 mph S9.7 kmh S 18.0 mph29.0 kmh 29.60 in1002.4 mb 0.00 in0.0 mm 0.00 in0.0 mm 0.00 in0.0 mm
02:15 AM 74.5°F23.6°C 67.5°F19.7°C 79% 6.0 mph SSW9.7 kmh SSW 15.0 mph24.1 kmh 29.60 in1002.4 mb 0.00 in0.0 mm 0.00 in0.0 mm 0.00 in0.0 mm
02:30 AM 74.3°F23.5°C 67.7°F19.8°C 80% 6.0 mph SSW9.7 kmh SSW 15.0 mph24.1 kmh 29.59 in1002.0 mb 0.00 in0.0 mm 0.00 in0.0 mm 0.00 in0.0 mm
02:45 AM 74.1°F23.4°C 67.6°F19.8°C 80% 7.0 mph SSW11.3 kmh SSW 17.0 mph27.4 kmh 29.59 in1002.0 mb 0.00 in0.0 mm 0.00 in0.0 mm 0.00 in0.0 mm
03:00 AM 73.4°F23.0°C 67.9°F19.9°C 83% 6.0 mph SSW9.7 kmh SSW 17.0 mph27.4 kmh 29.59 in1002.0 mb 0.00 in0.0 mm 0.00 in0.0 mm 0.00 in0.0 mm
03:15 AM 72.7°F22.6°C 67.6°F19.8°C 84% 5.0 mph SW8.0 kmh SW 14.0 mph22.5 kmh 29.59 in1002.0 mb 0.00 in0.0 mm 0.00 in0.0 mm 0.00 in0.0 mm
03:30 AM 72.5°F22.5°C 68.1°F20.1°C 86% 6.0 mph SW9.7 kmh SW 15.0 mph24.1 kmh 29.59 in1002.0 mb 0.00 in0.0 mm 0.00 in0.0 mm 0.00 in0.0 mm
03:45 AM 71.2°F21.8°C 67.5°F19.7°C 88% 7.0 mph SW11.3 kmh SW 18.0 mph29.0 kmh 29.59 in1002.0 mb 0.02 in0.5 mm 0.08 in2.0 mm 0.02 in0.5 mm
04:00 AM 70.2°F21.2°C 67.4°F19.7°C 91% 6.0 mph SW9.7 kmh SW 12.0 mph19.3 kmh 29.59 in1002.0 mb 0.02 in0.5 mm 0.00 in0.0 mm 0.02 in0.5 mm
04:15 AM 70.0°F21.1°C 67.5°F19.7°C 92% 3.0 mph SW4.8 kmh SW 8.0 mph12.9 kmh 29.59 in1002.0 mb 0.02 in0.5 mm 0.00 in0.0 mm 0.02 in0.5 mm
04:30 AM 70.0°F21.1°C 67.5°F19.7°C 92% 4.0 mph SW6.4 kmh SW 17.0 mph27.4 kmh 29.58 in1001.7 mb 0.03 in0.8 mm 0.04 in1.0 mm 0.03 in0.8 mm
04:45 AM 70.0°F21.1°C 67.5°F19.7°C 92% 4.0 mph SW6.4 kmh SW 11.0 mph17.7 kmh 29.58 in1001.7 mb 0.02 in0.5 mm 0.00 in0.0 mm 0.03 in0.8 mm
05:00 AM 70.2°F21.2°C 67.7°F19.8°C 92% 5.0 mph SSW8.0 kmh SSW 12.0 mph19.3 kmh 29.57 in1001.4 mb 0.01 in0.3 mm 0.00 in0.0 mm 0.03 in0.8 mm
05:15 AM 70.0°F21.1°C 67.5°F19.7°C 92% 4.0 mph S6.4 kmh S 11.0 mph17.7 kmh 29.57 in1001.4 mb 0.01 in0.3 mm 0.00 in0.0 mm 0.03 in0.8 mm
05:30 AM 70.0°F21.1°C 67.5°F19.7°C 92% 5.0 mph SSW8.0 kmh SSW 11.0 mph17.7 kmh 29.57 in1001.4 mb 0.00 in0.0 mm 0.00 in0.0 mm 0.03 in0.8 mm
05:45 AM 70.2°F21.2°C 67.4°F19.7°C 91% 4.0 mph SSW6.4 kmh SSW 11.0 mph17.7 kmh 29.57 in1001.4 mb 0.00 in0.0 mm 0.00 in0.0 mm 0.03 in0.8 mm
06:00 AM 70.2°F21.2°C 67.4°F19.7°C 91% 5.0 mph SSW8.0 kmh SSW 11.0 mph17.7 kmh 29.56 in1001.0 mb 0.00 in0.0 mm 0.00 in0.0 mm 0.03 in0.8 mm
06:15 AM 70.2°F21.2°C 67.4°F19.7°C 91% 5.0 mph S8.0 kmh S 12.0 mph19.3 kmh 29.57 in1001.4 mb 0.00 in0.0 mm 0.00 in0.0 mm 0.03 in0.8 mm
06:30 AM 70.2°F21.2°C 67.4°F19.7°C 91% 5.0 mph SSW8.0 kmh SSW 11.0 mph17.7 kmh 29.57 in1001.4 mb 0.00 in0.0 mm 0.00 in0.0 mm 0.03 in0.8 mm
06:45 AM 70.2°F21.2°C 67.1°F19.5°C 90% 5.0 mph SSW8.0 kmh SSW 12.0 mph19.3 kmh 29.57 in1001.4 mb 0.00 in0.0 mm 0.00 in0.0 mm 0.03 in0.8 mm
07:00 AM 70.2°F21.2°C 67.1°F19.5°C 90% 5.0 mph SSW8.0 kmh SSW 11.0 mph17.7 kmh 29.57 in1001.4 mb 0.00 in0.0 mm 0.00 in0.0 mm 0.03 in0.8 mm
07:15 AM 70.2°F21.2°C 67.1°F19.5°C 90% 4.0 mph SSW6.4 kmh SSW 11.0 mph17.7 kmh 29.57 in1001.4 mb 0.00 in0.0 mm 0.00 in0.0 mm 0.03 in0.8 mm
07:30 AM 70.0°F21.1°C 66.9°F19.4°C 90% 4.0 mph SSW6.4 kmh SSW 10.0 mph16.1 kmh 29.57 in1001.4 mb 0.00 in0.0 mm 0.00 in0.0 mm 0.03 in0.8 mm
07:45 AM 69.8°F21.0°C 66.7°F19.3°C 90% 4.0 mph SSW6.4 kmh SSW 10.0 mph16.1 kmh 29.57 in1001.4 mb 0.00 in0.0 mm 0.00 in0.0 mm 0.03 in0.8 mm
08:00 AM 69.6°F20.9°C 66.6°F19.2°C 90% 4.0 mph SSW6.4 kmh SSW 10.0 mph16.1 kmh 29.57 in1001.4 mb 0.00 in0.0 mm 0.00 in0.0 mm 0.03 in0.8 mm
08:15 AM 69.8°F21.0°C 66.7°F19.3°C 90% 5.0 mph S8.0 kmh S 10.0 mph16.1 kmh 29.58 in1001.7 mb 0.00 in0.0 mm 0.00 in0.0 mm 0.03 in0.8 mm
08:30 AM 70.0°F21.1°C 66.9°F19.4°C 90% 4.0 mph SW6.4 kmh SW 10.0 mph16.1 kmh 29.58 in1001.7 mb 0.00 in0.0 mm 0.00 in0.0 mm 0.03 in0.8 mm
08:45 AM 70.0°F21.1°C 66.6°F19.2°C 89% 3.0 mph SSW4.8 kmh SSW 9.0 mph14.5 kmh 29.58 in1001.7 mb 0.00 in0.0 mm 0.00 in0.0 mm 0.03 in0.8 mm
09:00 AM 70.2°F21.2°C 66.4°F19.1°C 88% 4.0 mph SW6.4 kmh SW 11.0 mph17.7 kmh 29.58 in1001.7 mb 0.00 in0.0 mm 0.00 in0.0 mm 0.03 in0.8 mm
09:15 AM 70.7°F21.5°C 66.6°F19.2°C 87% 4.0 mph SW6.4 kmh SW 9.0 mph14.5 kmh 29.59 in1002.0 mb 0.00 in0.0 mm 0.00 in0.0 mm 0.03 in0.8 mm
09:30 AM 71.8°F22.1°C 67.4°F19.7°C 86% 3.0 mph SW4.8 kmh SW 10.0 mph16.1 kmh 29.59 in1002.0 mb 0.00 in0.0 mm 0.00 in0.0 mm 0.03 in0.8 mm
09:45 AM 72.7°F22.6°C 66.9°F19.4°C 82% 5.0 mph SW8.0 kmh SW 12.0 mph19.3 kmh 29.59 in1002.0 mb 0.00 in0.0 mm 0.00 in0.0 mm 0.03 in0.8 mm
10:00 AM 72.3°F22.4°C 66.2°F19.0°C 81% 6.0 mph SW9.7 kmh SW 16.0 mph25.7 kmh 29.59 in1002.0 mb 0.00 in0.0 mm 0.00 in0.0 mm 0.03 in0.8 mm
10:15 AM 72.9°F22.7°C 65.6°F18.7°C 78% 5.0 mph SW8.0 kmh SW 12.0 mph19.3 kmh 29.58 in1001.7 mb 0.00 in0.0 mm 0.00 in0.0 mm 0.03 in0.8 mm
10:30 AM 72.3°F22.4°C 64.3°F17.9°C 76% 6.0 mph SW9.7 kmh SW 14.0 mph22.5 kmh 29.59 in1002.0 mb 0.00 in0.0 mm 0.00 in0.0 mm 0.03 in0.8 mm
10:45 AM 71.8°F22.1°C 63.4°F17.4°C 75% 7.0 mph SW11.3 kmh SW 14.0 mph22.5 kmh 29.59 in1002.0 mb 0.00 in0.0 mm 0.00 in0.0 mm 0.03 in0.8 mm
11:00 AM 71.8°F22.1°C 63.0°F17.2°C 74% 7.0 mph SW11.3 kmh SW 15.0 mph24.1 kmh 29.58 in1001.7 mb 0.00 in0.0 mm 0.00 in0.0 mm 0.03 in0.8 mm
11:15 AM 72.3°F22.4°C 62.4°F16.9°C 71% 7.0 mph SW11.3 kmh SW 13.0 mph20.9 kmh 29.58 in1001.7 mb 0.00 in0.0 mm 0.00 in0.0 mm 0.03 in0.8 mm
11:30 AM 73.0°F22.8°C 62.7°F17.1°C 70% 7.0 mph SW11.3 kmh SW 15.0 mph24.1 kmh 29.58 in1001.7 mb 0.00 in0.0 mm 0.00 in0.0 mm 0.03 in0.8 mm
11:45 AM 73.4°F23.0°C 62.6°F17.0°C 69% 7.0 mph SW11.3 kmh SW 14.0 mph22.5 kmh 29.58 in1001.7 mb 0.00 in0.0 mm 0.00 in0.0 mm 0.03 in0.8 mm
12:00 PM 74.3°F23.5°C 62.6°F17.0°C 67% 6.0 mph WSW9.7 kmh WSW 15.0 mph24.1 kmh 29.59 in1002.0 mb 0.00 in0.0 mm 0.00 in0.0 mm 0.03 in0.8 mm
12:15 PM 72.7°F22.6°C 60.7°F15.9°C 66% 7.0 mph WSW11.3 kmh WSW 15.0 mph24.1 kmh 29.59 in1002.0 mb 0.00 in0.0 mm 0.00 in0.0 mm 0.03 in0.8 mm
12:30 PM 72.1°F22.3°C 60.6°F15.9°C 67% 7.0 mph W11.3 kmh W 18.0 mph29.0 kmh 29.60 in1002.4 mb 0.00 in0.0 mm 0.00 in0.0 mm 0.03 in0.8 mm
12:45 PM 71.4°F21.9°C 60.3°F15.7°C 68% 7.0 mph W11.3 kmh W 13.0 mph20.9 kmh 29.60 in1002.4 mb 0.00 in0.0 mm 0.00 in0.0 mm 0.03 in0.8 mm
01:00 PM 71.4°F21.9°C 59.9°F15.5°C 67% 8.0 mph WSW12.9 kmh WSW 15.0 mph24.1 kmh 29.61 in1002.7 mb 0.00 in0.0 mm 0.00 in0.0 mm 0.03 in0.8 mm
01:15 PM 70.0°F21.1°C 59.3°F15.2°C 69% 9.0 mph W14.5 kmh W 17.0 mph27.4 kmh 29.61 in1002.7 mb 0.00 in0.0 mm 0.00 in0.0 mm 0.03 in0.8 mm
01:30 PM 68.7°F20.4°C 57.7°F14.3°C 68% 7.0 mph W11.3 kmh W 14.0 mph22.5 kmh 29.61 in1002.7 mb 0.00 in0.0 mm 0.00 in0.0 mm 0.03 in0.8 mm
01:45 PM 68.0°F20.0°C 56.6°F13.7°C 67% 8.0 mph WNW12.9 kmh WNW 16.0 mph25.7 kmh 29.61 in1002.7 mb 0.00 in0.0 mm 0.00 in0.0 mm 0.03 in0.8 mm
02:00 PM 67.6°F19.8°C 56.3°F13.5°C 67% 6.0 mph WSW9.7 kmh WSW 15.0 mph24.1 kmh 29.61 in1002.7 mb 0.00 in0.0 mm 0.00 in0.0 mm 0.03 in0.8 mm
02:15 PM 67.1°F19.5°C 54.5°F12.5°C 64% 9.0 mph W14.5 kmh W 19.0 mph30.6 kmh 29.62 in1003.0 mb 0.00 in0.0 mm 0.00 in0.0 mm 0.03 in0.8 mm
02:30 PM 66.4°F19.1°C 54.7°F12.6°C 66% 8.0 mph WSW12.9 kmh WSW 17.0 mph27.4 kmh 29.62 in1003.0 mb 0.00 in0.0 mm 0.00 in0.0 mm 0.03 in0.8 mm
02:45 PM 65.8°F18.8°C 54.2°F12.3°C 66% 6.0 mph W9.7 kmh W 13.0 mph20.9 kmh 29.62 in1003.0 mb 0.00 in0.0 mm 0.00 in0.0 mm 0.03 in0.8 mm
03:00 PM 65.3°F18.5°C 53.6°F12.0°C 66% 7.0 mph W11.3 kmh W 13.0 mph20.9 kmh 29.63 in1003.4 mb 0.00 in0.0 mm 0.00 in0.0 mm 0.03 in0.8 mm
03:15 PM 64.8°F18.2°C 52.7°F11.5°C 65% 6.0 mph W9.7 kmh W 14.0 mph22.5 kmh 29.63 in1003.4 mb 0.00 in0.0 mm 0.00 in0.0 mm 0.03 in0.8 mm
03:30 PM 63.9°F17.7°C 51.9°F11.1°C 65% 8.0 mph W12.9 kmh W 15.0 mph24.1 kmh 29.63 in1003.4 mb 0.00 in0.0 mm 0.00 in0.0 mm 0.03 in0.8 mm
03:45 PM 63.7°F17.6°C 52.1°F11.2°C 66% 6.0 mph W9.7 kmh W 12.0 mph19.3 kmh 29.63 in1003.4 mb 0.00 in0.0 mm 0.00 in0.0 mm 0.03 in0.8 mm
04:00 PM 63.3°F17.4°C 52.2°F11.2°C 67% 6.0 mph W9.7 kmh W 12.0 mph19.3 kmh 29.63 in1003.4 mb 0.00 in0.0 mm 0.00 in0.0 mm 0.03 in0.8 mm
04:15 PM 62.8°F17.1°C 50.8°F10.4°C 65% 6.0 mph W9.7 kmh W 12.0 mph19.3 kmh 29.64 in1003.7 mb 0.00 in0.0 mm 0.00 in0.0 mm 0.03 in0.8 mm
04:30 PM 62.2°F16.8°C 50.7°F10.4°C 66% 6.0 mph W9.7 kmh W 14.0 mph22.5 kmh 29.64 in1003.7 mb 0.00 in0.0 mm 0.00 in0.0 mm 0.03 in0.8 mm
04:45 PM 61.9°F16.6°C 50.4°F10.2°C 66% 6.0 mph W9.7 kmh W 15.0 mph24.1 kmh 29.65 in1004.1 mb 0.00 in0.0 mm 0.00 in0.0 mm 0.03 in0.8 mm
05:00 PM 61.5°F16.4°C 50.5°F10.3°C 67% 6.0 mph W9.7 kmh W 13.0 mph20.9 kmh 29.66 in1004.4 mb 0.00 in0.0 mm 0.00 in0.0 mm 0.03 in0.8 mm
05:15 PM 61.3°F16.3°C 50.3°F10.2°C 67% 5.0 mph W8.0 kmh W 12.0 mph19.3 kmh 29.66 in1004.4 mb 0.00 in0.0 mm 0.00 in0.0 mm 0.03 in0.8 mm
05:30 PM 61.0°F16.1°C 49.9°F9.9°C 67% 6.0 mph W9.7 kmh W 14.0 mph22.5 kmh 29.66 in1004.4 mb 0.00 in0.0 mm 0.00 in0.0 mm 0.03 in0.8 mm
05:45 PM 60.4°F15.8°C 49.4°F9.7°C 67% 6.0 mph WSW9.7 kmh WSW 12.0 mph19.3 kmh 29.66 in1004.4 mb 0.00 in0.0 mm 0.00 in0.0 mm 0.03 in0.8 mm
06:00 PM 59.7°F15.4°C 47.1°F8.4°C 63% 7.0 mph W11.3 kmh W 14.0 mph22.5 kmh 29.67 in1004.7 mb 0.00 in0.0 mm 0.00 in0.0 mm 0.03 in0.8 mm
06:15 PM 59.2°F15.1°C 47.0°F8.3°C 64% 7.0 mph W11.3 kmh W 16.0 mph25.7 kmh 29.68 in1005.1 mb 0.00 in0.0 mm 0.00 in0.0 mm 0.03 in0.8 mm
06:30 PM 58.5°F14.7°C 46.3°F7.9°C 64% 7.0 mph W11.3 kmh W 16.0 mph25.7 kmh 29.68 in1005.1 mb 0.00 in0.0 mm 0.00 in0.0 mm 0.03 in0.8 mm
06:45 PM 57.9°F14.4°C 46.2°F7.9°C 65% 7.0 mph W11.3 kmh W 16.0 mph25.7 kmh 29.69 in1005.4 mb 0.00 in0.0 mm 0.00 in0.0 mm 0.03 in0.8 mm
07:00 PM 57.7°F14.3°C 45.6°F7.6°C 64% 8.0 mph W12.9 kmh W 15.0 mph24.1 kmh 29.70 in1005.8 mb 0.00 in0.0 mm 0.00 in0.0 mm 0.03 in0.8 mm
07:15 PM 57.6°F14.2°C 45.5°F7.5°C 64% 5.0 mph W8.0 kmh W 13.0 mph20.9 kmh 29.70 in1005.8 mb 0.00 in0.0 mm 0.00 in0.0 mm 0.03 in0.8 mm
07:30 PM 57.0°F13.9°C 45.0°F7.2°C 64% 8.0 mph WNW12.9 kmh WNW 20.0 mph32.2 kmh 29.70 in1005.8 mb 0.00 in0.0 mm 0.00 in0.0 mm 0.03 in0.8 mm
07:45 PM 56.7°F13.7°C 44.6°F7.0°C 64% 7.0 mph W11.3 kmh W 14.0 mph22.5 kmh 29.71 in1006.1 mb 0.00 in0.0 mm 0.00 in0.0 mm 0.03 in0.8 mm
08:00 PM 56.5°F13.6°C 44.4°F6.9°C 64% 7.0 mph W11.3 kmh W 15.0 mph24.1 kmh 29.71 in1006.1 mb 0.00 in0.0 mm 0.00 in0.0 mm 0.03 in0.8 mm
08:15 PM 56.1°F13.4°C 44.1°F6.7°C 64% 7.0 mph W11.3 kmh W 16.0 mph25.7 kmh 29.71 in1006.1 mb 0.00 in0.0 mm 0.00 in0.0 mm 0.03 in0.8 mm
08:30 PM 55.8°F13.2°C 43.8°F6.6°C 64% 7.0 mph W11.3 kmh W 14.0 mph22.5 kmh 29.71 in1006.1 mb 0.00 in0.0 mm 0.00 in0.0 mm 0.03 in0.8 mm
08:45 PM 55.6°F13.1°C 44.0°F6.7°C 65% 6.0 mph W9.7 kmh W 12.0 mph19.3 kmh 29.72 in1006.4 mb 0.00 in0.0 mm 0.00 in0.0 mm 0.03 in0.8 mm
09:00 PM 55.2°F12.9°C 43.7°F6.5°C 65% 7.0 mph W11.3 kmh W 13.0 mph20.9 kmh 29.73 in1006.8 mb 0.00 in0.0 mm 0.00 in0.0 mm 0.03 in0.8 mm
09:15 PM 55.0°F12.8°C 43.5°F6.4°C 65% 5.0 mph WSW8.0 kmh WSW 14.0 mph22.5 kmh 29.73 in1006.8 mb 0.00 in0.0 mm 0.00 in0.0 mm 0.03 in0.8 mm
09:30 PM 54.7°F12.6°C 43.1°F6.2°C 65% 6.0 mph W9.7 kmh W 19.0 mph30.6 kmh 29.74 in1007.1 mb 0.00 in0.0 mm 0.00 in0.0 mm 0.03 in0.8 mm
09:45 PM 54.3°F12.4°C 42.4°F5.8°C 64% 7.0 mph W11.3 kmh W 17.0 mph27.4 kmh 29.74 in1007.1 mb 0.00 in0.0 mm 0.00 in0.0 mm 0.03 in0.8 mm
10:00 PM 54.0°F12.2°C 42.1°F5.6°C 64% 8.0 mph WSW12.9 kmh WSW 22.0 mph35.4 kmh 29.74 in1007.1 mb 0.00 in0.0 mm 0.00 in0.0 mm 0.03 in0.8 mm
10:15 PM 53.4°F11.9°C 41.5°F5.3°C 64% 7.0 mph WSW11.3 kmh WSW 15.0 mph24.1 kmh 29.75 in1007.5 mb 0.00 in0.0 mm 0.00 in0.0 mm 0.03 in0.8 mm
10:30 PM 53.2°F11.8°C 42.2°F5.7°C 66% 7.0 mph WSW11.3 kmh WSW 15.0 mph24.1 kmh 29.75 in1007.5 mb 0.00 in0.0 mm 0.00 in0.0 mm 0.03 in0.8 mm
10:45 PM 53.2°F11.8°C 42.6°F5.9°C 67% 7.0 mph W11.3 kmh W 13.0 mph20.9 kmh 29.75 in1007.5 mb 0.00 in0.0 mm 0.00 in0.0 mm 0.03 in0.8 mm
11:00 PM 53.1°F11.7°C 42.0°F5.6°C 66% 6.0 mph W9.7 kmh W 12.0 mph19.3 kmh 29.76 in1007.8 mb 0.00 in0.0 mm 0.00 in0.0 mm 0.03 in0.8 mm
11:15 PM 53.1°F11.7°C 42.8°F6.0°C 68% 4.0 mph WNW6.4 kmh WNW 11.0 mph17.7 kmh 29.76 in1007.8 mb 0.00 in0.0 mm 0.00 in0.0 mm 0.03 in0.8 mm
11:30 PM 52.7°F11.5°C 41.7°F5.4°C 66% 7.0 mph W11.3 kmh W 14.0 mph22.5 kmh 29.76 in1007.8 mb 0.00 in0.0 mm 0.00 in0.0 mm 0.03 in0.8 mm
11:45 PM 52.3°F11.3°C 41.3°F5.2°C 66% 7.0 mph WSW11.3 kmh WSW 15.0 mph24.1 kmh 29.76 in1007.8 mb 0.00 in0.0 mm 0.00 in0.0 mm 0.03 in0.8 mm